createdAt,value
2023-01-29T00:02:10.350Z,4.25
2023-01-29T00:04:37.489Z,3.90
2023-01-29T00:09:32.136Z,4.95
2023-01-29T00:11:59.316Z,4.57
2023-01-29T00:16:54.910Z,3.65
2023-01-29T00:19:22.002Z,4.43
2023-01-29T00:24:16.345Z,4.80
2023-01-29T00:26:43.501Z,3.90
2023-01-29T00:29:11.156Z,3.88
2023-01-29T00:31:38.353Z,3.92
2023-01-29T00:34:07.557Z,4.35
2023-01-29T00:36:34.710Z,3.83
2023-01-29T00:41:49.805Z,3.75
2023-01-29T00:44:35.593Z,4.28
2023-01-29T00:47:03.000Z,3.80
2023-01-29T00:49:32.996Z,3.47
2023-01-29T00:52:18.664Z,4.13
2023-01-29T00:54:45.852Z,4.03
2023-01-29T00:57:13.041Z,3.92
2023-01-29T01:02:27.369Z,3.00
2023-01-29T01:04:54.570Z,3.80
2023-01-29T01:07:21.852Z,4.07
2023-01-29T01:10:07.409Z,4.35
2023-01-29T01:12:34.653Z,3.42
2023-01-29T01:15:01.812Z,3.33
2023-01-29T01:17:28.875Z,3.25
2023-01-29T01:22:23.353Z,3.40
2023-01-29T01:24:50.513Z,2.92
2023-01-29T01:27:19.758Z,3.58
2023-01-29T01:29:47.194Z,2.95
2023-01-29T01:32:14.443Z,2.85
2023-01-29T01:34:41.738Z,3.03
2023-01-29T01:37:08.964Z,3.53
2023-01-29T01:39:36.190Z,3.38
2023-01-29T01:42:03.431Z,4.03
2023-01-29T01:44:52.298Z,3.80
2023-01-29T01:47:31.636Z,4.13
2023-01-29T01:50:08.121Z,3.53
2023-01-29T01:52:36.714Z,3.78
2023-01-29T01:55:04.240Z,3.97
2023-01-29T01:57:31.440Z,3.67
2023-01-29T02:00:00.850Z,3.75
2023-01-29T02:02:46.783Z,3.70
2023-01-29T02:05:32.394Z,3.80
2023-01-29T02:08:18.282Z,3.78
2023-01-29T02:10:46.639Z,3.78
2023-01-29T02:13:16.363Z,3.42
2023-01-29T02:15:46.976Z,3.70
2023-01-29T02:18:15.151Z,3.80
2023-01-29T02:20:49.878Z,4.07
2023-01-29T02:23:32.203Z,4.10
2023-01-29T02:26:10.968Z,3.80
2023-01-29T02:28:45.805Z,3.42
2023-01-29T02:31:41.573Z,3.85
2023-01-29T02:34:27.735Z,3.85
2023-01-29T02:36:57.550Z,3.67
2023-01-29T02:39:33.020Z,3.22
2023-01-29T02:42:25.556Z,3.35
2023-01-29T02:45:01.139Z,3.47
2023-01-29T02:47:34.101Z,3.53
2023-01-29T02:50:06.315Z,3.70
2023-01-29T02:52:38.065Z,3.28
2023-01-29T02:55:11.012Z,3.25
2023-01-29T02:57:41.103Z,3.40
2023-01-29T03:00:12.757Z,2.85
2023-01-29T03:03:03.901Z,3.90
2023-01-29T03:05:46.343Z,2.85
2023-01-29T03:08:16.226Z,3.70
2023-01-29T03:11:02.271Z,3.05
2023-01-29T03:14:13.265Z,3.10
2023-01-29T03:16:50.704Z,3.20
2023-01-29T03:19:26.451Z,3.38
2023-01-29T03:21:59.690Z,3.13
2023-01-29T03:25:14.709Z,3.00
2023-01-29T03:28:08.716Z,3.00
2023-01-29T03:31:11.868Z,2.42
2023-01-29T03:34:05.591Z,3.13
2023-01-29T03:37:03.769Z,3.42
2023-01-29T03:39:31.410Z,3.25
2023-01-29T03:42:12.920Z,3.55
2023-01-29T03:44:48.972Z,3.80
2023-01-29T03:47:25.427Z,3.05
2023-01-29T03:50:11.308Z,3.28
2023-01-29T03:52:43.459Z,3.17
2023-01-29T03:55:36.431Z,3.35
2023-01-29T03:58:06.570Z,2.80
2023-01-29T04:00:39.115Z,2.85
2023-01-29T04:03:25.175Z,2.75
2023-01-29T04:06:05.573Z,3.13
2023-01-29T04:08:37.130Z,3.33
2023-01-29T04:11:09.727Z,3.20
2023-01-29T04:13:37.010Z,3.20
2023-01-29T04:16:05.490Z,2.92
2023-01-29T04:18:59.223Z,3.55
2023-01-29T04:21:32.090Z,3.20
2023-01-29T04:24:00.019Z,3.28
2023-01-29T04:26:50.066Z,2.97
2023-01-29T04:29:38.206Z,3.22
2023-01-29T04:32:19.809Z,3.60
2023-01-29T04:35:10.723Z,2.67
2023-01-29T04:37:50.951Z,3.85
2023-01-29T04:40:23.467Z,3.40
2023-01-29T04:43:05.215Z,3.47
2023-01-29T04:45:50.507Z,3.38
2023-01-29T04:48:51.908Z,3.60
2023-01-29T04:51:43.496Z,3.90
2023-01-29T04:54:19.187Z,4.05
2023-01-29T04:57:07.157Z,3.45
2023-01-29T04:59:36.970Z,4.40
2023-01-29T05:02:04.061Z,3.80
2023-01-29T05:09:28.775Z,3.40
2023-01-29T05:14:22.898Z,4.15
2023-01-29T05:19:18.695Z,5.13
2023-01-29T05:21:47.364Z,5.05
2023-01-29T05:24:19.718Z,4.25
2023-01-29T05:27:06.231Z,4.50
2023-01-29T05:29:33.443Z,4.45
2023-01-29T05:32:00.748Z,5.53
2023-01-29T05:34:27.984Z,4.82
2023-01-29T05:36:55.175Z,4.63
2023-01-29T05:39:22.413Z,5.00
2023-01-29T05:41:49.556Z,5.75
2023-01-29T05:44:16.874Z,4.45
2023-01-29T05:46:44.789Z,4.72
2023-01-29T05:49:12.149Z,5.35
2023-01-29T05:51:39.334Z,5.63
2023-01-29T05:56:33.386Z,5.57
2023-01-29T06:01:27.486Z,5.78
2023-01-29T06:03:54.597Z,6.40
2023-01-29T06:08:48.931Z,6.65
2023-01-29T06:11:18.327Z,5.88
2023-01-29T06:13:45.817Z,5.75
2023-01-29T06:16:13.609Z,6.50
2023-01-29T06:18:41.321Z,5.97
2023-01-29T06:21:10.021Z,6.35
2023-01-29T06:23:37.288Z,6.72
2023-01-29T06:26:05.941Z,6.65
2023-01-29T06:28:33.053Z,6.97
2023-01-29T06:33:43.489Z,8.57
2023-01-29T06:38:37.569Z,6.68
2023-01-29T06:43:38.740Z,8.65
2023-01-29T06:46:07.300Z,6.95
2023-01-29T06:48:34.773Z,8.30
2023-01-29T06:51:03.489Z,8.07
2023-01-29T06:53:31.082Z,9.43
2023-01-29T06:55:58.191Z,8.98
2023-01-29T07:00:52.807Z,9.25
2023-01-29T07:03:20.081Z,8.85
2023-01-29T07:05:53.946Z,8.65
2023-01-29T07:08:22.840Z,8.55
2023-01-29T07:10:50.260Z,8.88
2023-01-29T07:13:17.575Z,7.68
2023-01-29T07:15:44.705Z,10.18
2023-01-29T07:20:41.910Z,7.80
2023-01-29T07:23:15.487Z,8.07
2023-01-29T07:25:42.715Z,9.43
2023-01-29T07:28:09.915Z,8.32
2023-01-29T07:30:37.123Z,8.32
2023-01-29T07:35:41.179Z,8.27
2023-01-29T07:38:09.024Z,9.20
2023-01-29T07:40:36.386Z,10.35
2023-01-29T07:43:05.316Z,9.30
2023-01-29T07:45:34.913Z,10.27
2023-01-29T07:48:02.052Z,10.27
2023-01-29T07:52:56.326Z,9.85
2023-01-29T07:55:23.539Z,10.13
2023-01-29T07:57:57.672Z,11.52
2023-01-29T08:00:24.873Z,10.10
2023-01-29T08:02:51.887Z,12.25
2023-01-29T08:05:19.162Z,11.88
2023-01-29T08:07:51.573Z,10.55
2023-01-29T08:10:28.149Z,10.63
2023-01-29T08:12:56.976Z,10.90
2023-01-29T08:15:24.326Z,10.55
2023-01-29T08:20:39.147Z,10.45
2023-01-29T08:25:34.421Z,10.52
2023-01-29T08:28:01.733Z,10.52
2023-01-29T08:32:57.035Z,10.20
2023-01-29T08:35:24.487Z,10.05
2023-01-29T08:37:59.554Z,10.35
2023-01-29T08:40:27.764Z,9.77
2023-01-29T08:43:02.021Z,11.60
2023-01-29T08:45:30.642Z,11.70
2023-01-29T08:47:57.714Z,13.02
2023-01-29T08:52:51.959Z,10.95
2023-01-29T08:57:46.480Z,10.83
2023-01-29T09:02:40.908Z,10.40
2023-01-29T09:07:35.187Z,9.82
2023-01-29T09:12:30.511Z,10.43
2023-01-29T09:14:57.541Z,11.23
2023-01-29T09:19:53.116Z,10.18
2023-01-29T09:22:20.773Z,11.85
2023-01-29T09:24:47.897Z,10.85
2023-01-29T09:29:41.959Z,11.45
2023-01-29T09:34:36.105Z,10.50
2023-01-29T09:39:30.560Z,10.77
2023-01-29T09:42:06.410Z,11.70
2023-01-29T09:44:54.570Z,10.75
2023-01-29T09:47:22.873Z,12.73
2023-01-29T09:49:58.275Z,11.85
2023-01-29T09:52:30.616Z,12.40
2023-01-29T09:55:14.890Z,11.00
2023-01-29T09:57:52.756Z,11.75
2023-01-29T10:00:32.590Z,12.00
2023-01-29T10:03:24.309Z,11.80
2023-01-29T10:06:20.620Z,13.07
2023-01-29T10:08:47.698Z,12.77
2023-01-29T10:14:01.822Z,11.57
2023-01-29T10:16:43.975Z,12.52
2023-01-29T10:19:35.494Z,12.23
2023-01-29T10:22:23.345Z,11.30
2023-01-29T10:25:13.644Z,12.13
2023-01-29T10:27:41.910Z,12.57
2023-01-29T10:30:38.303Z,13.07
2023-01-29T10:33:06.765Z,12.27
2023-01-29T10:35:44.667Z,12.10
2023-01-29T10:38:33.024Z,12.02
2023-01-29T10:44:06.135Z,12.55
2023-01-29T10:46:42.599Z,12.98
2023-01-29T10:49:34.175Z,12.85
2023-01-29T10:52:01.170Z,13.73
2023-01-29T10:54:34.352Z,13.05
2023-01-29T10:57:43.413Z,12.60
2023-01-29T11:00:17.909Z,13.02
2023-01-29T11:02:46.489Z,13.23
2023-01-29T11:05:35.382Z,12.90
2023-01-29T11:08:30.977Z,13.50
2023-01-29T11:11:08.729Z,11.88
2023-01-29T11:14:00.492Z,12.80
2023-01-29T11:16:28.577Z,12.30
2023-01-29T11:19:00.044Z,12.30
2023-01-29T11:21:28.629Z,13.20
2023-01-29T11:24:17.103Z,13.15
2023-01-29T11:26:45.875Z,12.38
2023-01-29T11:29:43.228Z,12.63
2023-01-29T11:32:34.314Z,13.23
2023-01-29T11:35:06.762Z,12.55
2023-01-29T11:37:34.985Z,13.38
2023-01-29T11:40:02.253Z,12.15
2023-01-29T11:42:31.141Z,12.10
2023-01-29T11:44:58.441Z,12.48
2023-01-29T11:49:57.317Z,10.70
2023-01-29T11:52:39.009Z,12.77
2023-01-29T11:55:07.656Z,12.40
2023-01-29T11:57:36.706Z,12.27
2023-01-29T12:00:07.243Z,11.93
2023-01-29T12:02:44.300Z,12.10
2023-01-29T12:05:19.513Z,10.73
2023-01-29T12:07:50.858Z,11.52
2023-01-29T12:10:31.889Z,13.13
2023-01-29T12:13:25.207Z,12.23
2023-01-29T12:16:04.797Z,12.38
2023-01-29T12:18:44.303Z,12.25
2023-01-29T12:21:18.485Z,13.02
2023-01-29T12:23:51.092Z,12.27
2023-01-29T12:26:36.308Z,11.68
2023-01-29T12:29:22.327Z,11.50
2023-01-29T12:32:12.743Z,11.07
2023-01-29T12:34:56.677Z,10.90
2023-01-29T12:37:47.133Z,11.65
2023-01-29T12:40:18.475Z,9.30
2023-01-29T12:42:49.987Z,12.57
2023-01-29T12:45:19.206Z,10.93
2023-01-29T12:47:51.072Z,10.75
2023-01-29T12:50:34.392Z,12.13
2023-01-29T12:53:28.809Z,11.60
2023-01-29T12:55:59.483Z,12.20
2023-01-29T12:58:48.610Z,8.20
2023-01-29T13:01:25.632Z,11.77
2023-01-29T13:04:00.227Z,11.50
2023-01-29T13:06:30.708Z,11.13
2023-01-29T13:09:17.661Z,10.60
2023-01-29T13:11:52.760Z,11.50
2023-01-29T13:14:29.003Z,12.20
2023-01-29T13:17:08.518Z,10.10
2023-01-29T13:19:38.587Z,10.98
2023-01-29T13:22:06.959Z,11.38
2023-01-29T13:24:41.709Z,10.93
2023-01-29T13:27:25.461Z,10.27
2023-01-29T13:29:53.265Z,10.93
2023-01-29T13:32:25.562Z,11.80
2023-01-29T13:34:54.632Z,11.57
2023-01-29T13:37:32.436Z,11.13
2023-01-29T13:40:00.464Z,11.15
2023-01-29T13:42:42.933Z,11.50
2023-01-29T13:45:17.901Z,11.65
2023-01-29T13:47:45.287Z,12.38
2023-01-29T13:50:33.042Z,11.40
2023-01-29T13:53:02.248Z,12.68
2023-01-29T13:55:36.759Z,13.57
2023-01-29T13:58:05.003Z,11.82
2023-01-29T14:00:35.256Z,11.82
2023-01-29T14:03:04.783Z,11.13
2023-01-29T14:05:31.938Z,11.40
2023-01-29T14:10:30.634Z,10.05
2023-01-29T14:13:03.779Z,11.38
2023-01-29T14:15:34.790Z,11.13
2023-01-29T14:18:21.392Z,11.23
2023-01-29T14:20:48.542Z,10.32
2023-01-29T14:23:23.152Z,11.07
2023-01-29T14:25:50.203Z,11.35
2023-01-29T14:28:21.416Z,10.50
2023-01-29T14:30:49.215Z,11.45
2023-01-29T14:33:36.272Z,10.60
2023-01-29T14:36:13.607Z,10.27
2023-01-29T14:38:41.567Z,9.50
2023-01-29T14:41:26.470Z,10.68
2023-01-29T14:44:31.887Z,11.05
2023-01-29T14:46:58.985Z,11.15
2023-01-29T14:52:11.470Z,10.73
2023-01-29T14:54:40.237Z,9.82
2023-01-29T14:57:11.019Z,10.63
2023-01-29T14:59:44.084Z,8.98
2023-01-29T15:02:20.592Z,9.75
2023-01-29T15:04:51.582Z,10.38
2023-01-29T15:07:29.835Z,10.52
2023-01-29T15:10:36.214Z,9.48
2023-01-29T15:13:36.078Z,9.60
2023-01-29T15:16:06.639Z,10.25
2023-01-29T15:18:37.363Z,10.27
2023-01-29T15:21:11.769Z,10.25
2023-01-29T15:23:39.097Z,9.48
2023-01-29T15:26:12.050Z,10.07
2023-01-29T15:28:39.260Z,10.32
2023-01-29T15:31:12.077Z,10.23
2023-01-29T15:33:39.320Z,10.50
2023-01-29T15:38:35.653Z,9.23
2023-01-29T15:41:04.471Z,9.90
2023-01-29T15:43:35.407Z,10.25
2023-01-29T15:46:05.078Z,10.27
2023-01-29T15:48:40.854Z,11.02
2023-01-29T15:51:08.912Z,9.45
2023-01-29T15:53:43.492Z,9.38
2023-01-29T15:56:11.195Z,9.77
2023-01-29T15:58:38.258Z,10.77
2023-01-29T16:03:33.423Z,10.35
2023-01-29T16:06:00.981Z,9.88
2023-01-29T16:08:28.117Z,11.15
2023-01-29T16:13:44.911Z,10.40
2023-01-29T16:16:26.960Z,11.13
2023-01-29T16:19:00.477Z,9.30
2023-01-29T16:21:38.657Z,10.68
2023-01-29T16:24:09.725Z,11.07
2023-01-29T16:26:38.300Z,10.65
2023-01-29T16:29:29.696Z,10.85
2023-01-29T16:32:00.710Z,8.85
2023-01-29T16:34:31.644Z,10.20
2023-01-29T16:36:58.925Z,10.85
2023-01-29T16:39:30.648Z,10.10
2023-01-29T16:42:13.203Z,9.40
2023-01-29T16:44:40.511Z,10.43
2023-01-29T16:47:12.932Z,11.32
2023-01-29T16:49:43.371Z,10.48
2023-01-29T16:52:18.785Z,11.05
2023-01-29T16:54:45.811Z,10.95
2023-01-29T16:57:16.519Z,9.63
2023-01-29T16:59:43.619Z,10.48
2023-01-29T17:04:46.810Z,9.82
2023-01-29T17:07:18.510Z,11.88
2023-01-29T17:09:45.543Z,11.48
2023-01-29T17:12:17.424Z,10.35
2023-01-29T17:14:56.931Z,11.48
2023-01-29T17:17:30.411Z,10.65
2023-01-29T17:20:18.351Z,11.70
2023-01-29T17:22:47.055Z,11.30
2023-01-29T17:25:14.271Z,10.60
2023-01-29T17:27:42.257Z,10.13
2023-01-29T17:30:16.196Z,11.45
2023-01-29T17:32:45.037Z,11.52
2023-01-29T17:35:15.490Z,12.23
2023-01-29T17:37:42.750Z,11.07
2023-01-29T17:42:49.219Z,10.60
2023-01-29T17:47:43.684Z,10.63
2023-01-29T17:50:23.481Z,11.27
2023-01-29T17:52:50.869Z,12.05
2023-01-29T17:55:18.208Z,12.52
2023-01-29T17:57:45.545Z,13.77
2023-01-29T18:02:49.974Z,11.77
2023-01-29T18:05:17.657Z,11.88
2023-01-29T18:07:46.590Z,11.00
2023-01-29T18:10:18.237Z,11.60
2023-01-29T18:12:45.326Z,11.85
2023-01-29T18:17:40.045Z,12.40
2023-01-29T18:20:21.846Z,11.13
2023-01-29T18:22:48.936Z,11.13
2023-01-29T18:25:16.581Z,11.18
2023-01-29T18:27:43.903Z,11.10
2023-01-29T18:32:38.490Z,11.25
2023-01-29T18:35:06.690Z,11.20
2023-01-29T18:37:34.149Z,12.75
2023-01-29T18:40:01.299Z,11.10
2023-01-29T18:44:57.845Z,11.55
2023-01-29T18:49:52.238Z,9.43
2023-01-29T18:52:19.411Z,12.27
2023-01-29T18:57:14.713Z,11.55
2023-01-29T19:00:00.624Z,12.38
2023-01-29T19:02:27.915Z,12.38
2023-01-29T19:07:21.986Z,11.77
2023-01-29T19:12:17.548Z,11.60
2023-01-29T19:17:11.819Z,12.88
2023-01-29T19:19:38.974Z,12.18
2023-01-29T19:24:38.912Z,9.40
2023-01-29T19:27:09.095Z,12.95
2023-01-29T19:29:36.202Z,10.98
2023-01-29T19:34:30.293Z,11.48
2023-01-29T19:39:24.474Z,10.90
2023-01-29T19:41:51.517Z,12.15
2023-01-29T19:46:46.874Z,11.98
2023-01-29T19:49:14.105Z,10.82
2023-01-29T19:51:41.531Z,11.45
2023-01-29T19:54:09.451Z,11.85
2023-01-29T19:56:36.577Z,11.27
2023-01-29T20:01:32.344Z,11.18
2023-01-29T20:03:59.550Z,11.23
2023-01-29T20:06:27.930Z,11.77
2023-01-29T20:08:55.060Z,11.48
2023-01-29T20:13:50.664Z,11.03
2023-01-29T20:16:17.880Z,11.75
2023-01-29T20:18:45.194Z,11.40
2023-01-29T20:26:08.470Z,10.57
2023-01-29T20:28:36.287Z,10.13
2023-01-29T20:31:03.907Z,11.25
2023-01-29T20:33:31.959Z,10.88
2023-01-29T20:36:01.403Z,10.73
2023-01-29T20:38:30.595Z,10.85
2023-01-29T20:41:03.889Z,9.77
2023-01-29T20:43:31.143Z,11.50
2023-01-29T20:45:58.688Z,10.60
2023-01-29T20:48:26.134Z,9.57
2023-01-29T20:50:53.959Z,10.45
2023-01-29T20:53:21.072Z,11.15
2023-01-29T20:55:48.327Z,10.07
2023-01-29T20:58:15.481Z,10.23
2023-01-29T21:03:09.574Z,10.25
2023-01-29T21:08:03.769Z,10.27
2023-01-29T21:12:57.846Z,9.93
2023-01-29T21:17:54.849Z,9.55
2023-01-29T21:20:22.101Z,9.75
2023-01-29T21:22:49.434Z,9.93
2023-01-29T21:25:17.508Z,9.57
2023-01-29T21:27:44.876Z,9.10
2023-01-29T21:30:12.278Z,9.88
2023-01-29T21:32:39.339Z,9.38
2023-01-29T21:37:36.954Z,9.55
2023-01-29T21:40:05.386Z,8.85
2023-01-29T21:42:50.919Z,8.05
2023-01-29T21:45:18.061Z,9.45
2023-01-29T21:47:45.212Z,9.15
2023-01-29T21:52:39.216Z,9.65
2023-01-29T21:57:33.400Z,8.57
2023-01-29T22:02:30.889Z,8.73
2023-01-29T22:05:16.620Z,9.35
2023-01-29T22:07:45.680Z,10.27
2023-01-29T22:10:13.016Z,9.40
2023-01-29T22:12:40.381Z,8.85
2023-01-29T22:15:08.141Z,8.98
2023-01-29T22:17:35.447Z,8.75
2023-01-29T22:20:02.743Z,9.25
2023-01-29T22:22:29.893Z,8.40
2023-01-29T22:27:25.961Z,9.30
2023-01-29T22:32:20.086Z,8.95
2023-01-29T22:34:47.277Z,9.13
2023-01-29T22:39:41.279Z,8.00
2023-01-29T22:44:35.416Z,9.40
2023-01-29T22:49:30.439Z,9.32
2023-01-29T22:52:12.927Z,9.77
2023-01-29T22:54:41.297Z,8.50
2023-01-29T22:57:12.676Z,9.07
2023-01-29T22:59:39.824Z,10.25
2023-01-29T23:02:07.591Z,9.23
2023-01-29T23:04:34.805Z,10.35
2023-01-29T23:07:01.952Z,9.80
2023-01-29T23:11:56.264Z,9.77
2023-01-29T23:14:23.369Z,8.70
2023-01-29T23:19:17.696Z,9.88
2023-01-29T23:21:44.782Z,9.18
2023-01-29T23:26:57.846Z,9.43
2023-01-29T23:29:25.456Z,8.15
2023-01-29T23:31:52.491Z,8.93
2023-01-29T23:36:47.828Z,9.38
2023-01-29T23:39:14.815Z,7.50
2023-01-29T23:41:41.977Z,9.45
2023-01-29T23:46:36.077Z,9.30
2023-01-29T23:49:03.216Z,9.27
2023-01-29T23:53:57.358Z,8.68
2023-01-29T23:56:24.546Z,10.88
2023-01-29T23:58:55.332Z,9.02
